sensor_id;sensor_type;location;lat;lon;timestamp;temperature;humidity
12833;DHT22;6483;51.310;4.462;2022-12-10T00:00:07;-1.70;99.90
12833;DHT22;6483;51.310;4.462;2022-12-10T00:02:33;-1.50;99.90
12833;DHT22;6483;51.310;4.462;2022-12-10T00:05:00;-0.70;99.90
12833;DHT22;6483;51.310;4.462;2022-12-10T00:07:29;-1.20;99.90
12833;DHT22;6483;51.310;4.462;2022-12-10T00:09:57;-1.00;99.90
12833;DHT22;6483;51.310;4.462;2022-12-10T00:12:25;-1.00;99.90
12833;DHT22;6483;51.310;4.462;2022-12-10T00:14:51;-0.90;99.90
12833;DHT22;6483;51.310;4.462;2022-12-10T00:17:16;-0.80;99.90
12833;DHT22;6483;51.310;4.462;2022-12-10T00:19:42;1.60;99.90
12833;DHT22;6483;51.310;4.462;2022-12-10T00:22:08;-0.90;99.90
12833;DHT22;6483;51.310;4.462;2022-12-10T00:24:34;-0.90;99.90
12833;DHT22;6483;51.310;4.462;2022-12-10T00:27:00;-0.80;99.90
12833;DHT22;6483;51.310;4.462;2022-12-10T00:29:30;-0.80;99.90
12833;DHT22;6483;51.310;4.462;2022-12-10T00:31:55;-0.80;99.90
12833;DHT22;6483;51.310;4.462;2022-12-10T00:34:24;1.00;99.90
12833;DHT22;6483;51.310;4.462;2022-12-10T00:36:50;-0.80;99.90
12833;DHT22;6483;51.310;4.462;2022-12-10T00:39:18;-0.60;99.90
12833;DHT22;6483;51.310;4.462;2022-12-10T00:41:45;-0.70;99.90
12833;DHT22;6483;51.310;4.462;2022-12-10T00:44:11;0.60;99.90
12833;DHT22;6483;51.310;4.462;2022-12-10T00:46:40;1.00;99.90
12833;DHT22;6483;51.310;4.462;2022-12-10T00:49:06;1.00;99.90
12833;DHT22;6483;51.310;4.462;2022-12-10T00:51:31;-0.60;99.90
12833;DHT22;6483;51.310;4.462;2022-12-10T00:53:58;-0.60;99.90
12833;DHT22;6483;51.310;4.462;2022-12-10T00:56:26;1.00;99.90
12833;DHT22;6483;51.310;4.462;2022-12-10T00:58:53;0.80;99.90
12833;DHT22;6483;51.310;4.462;2022-12-10T01:04:14;-0.70;99.90
12833;DHT22;6483;51.310;4.462;2022-12-10T01:06:45;-0.80;99.90
12833;DHT22;6483;51.310;4.462;2022-12-10T01:09:13;1.60;99.90
12833;DHT22;6483;51.310;4.462;2022-12-10T01:11:41;1.60;99.90
12833;DHT22;6483;51.310;4.462;2022-12-10T01:14:09;-0.70;99.90
12833;DHT22;6483;51.310;4.462;2022-12-10T01:16:35;-0.70;99.90
12833;DHT22;6483;51.310;4.462;2022-12-10T01:19:02;0.30;99.90
12833;DHT22;6483;51.310;4.462;2022-12-10T01:21:28;0.60;99.90
12833;DHT22;6483;51.310;4.462;2022-12-10T01:23:56;-0.70;99.90
12833;DHT22;6483;51.310;4.462;2022-12-10T01:26:28;0.10;99.90
12833;DHT22;6483;51.310;4.462;2022-12-10T01:28:55;-0.70;99.90
12833;DHT22;6483;51.310;4.462;2022-12-10T01:31:28;-0.70;99.90
12833;DHT22;6483;51.310;4.462;2022-12-10T01:33:58;-0.70;99.90
12833;DHT22;6483;51.310;4.462;2022-12-10T01:36:30;-0.60;99.90
12833;DHT22;6483;51.310;4.462;2022-12-10T01:38:57;-0.60;99.90
12833;DHT22;6483;51.310;4.462;2022-12-10T01:41:29;0.70;99.90
12833;DHT22;6483;51.310;4.462;2022-12-10T01:47:00;-0.60;99.90
12833;DHT22;6483;51.310;4.462;2022-12-10T01:49:35;-0.60;99.90
12833;DHT22;6483;51.310;4.462;2022-12-10T01:52:02;-0.60;99.90
12833;DHT22;6483;51.310;4.462;2022-12-10T01:54:40;-0.70;99.90
12833;DHT22;6483;51.310;4.462;2022-12-10T01:57:19;-0.70;99.90
12833;DHT22;6483;51.310;4.462;2022-12-10T01:59:52;-0.70;99.90
12833;DHT22;6483;51.310;4.462;2022-12-10T02:05:17;-0.60;99.90
12833;DHT22;6483;51.310;4.462;2022-12-10T02:08:17;-0.60;99.90
12833;DHT22;6483;51.310;4.462;2022-12-10T02:11:05;-0.60;99.90
12833;DHT22;6483;51.310;4.462;2022-12-10T02:13:52;-0.50;99.90
12833;DHT22;6483;51.310;4.462;2022-12-10T02:16:44;-0.60;99.90
12833;DHT22;6483;51.310;4.462;2022-12-10T02:22:00;-0.60;99.90
12833;DHT22;6483;51.310;4.462;2022-12-10T02:24:31;-0.60;99.90
12833;DHT22;6483;51.310;4.462;2022-12-10T02:27:11;1.20;99.90
12833;DHT22;6483;51.310;4.462;2022-12-10T02:29:41;-0.50;99.90
12833;DHT22;6483;51.310;4.462;2022-12-10T02:32:18;-0.40;99.90
12833;DHT22;6483;51.310;4.462;2022-12-10T02:34:54;-0.50;99.90
12833;DHT22;6483;51.310;4.462;2022-12-10T02:37:39;-0.40;99.90
12833;DHT22;6483;51.310;4.462;2022-12-10T02:40:15;-0.50;99.90
12833;DHT22;6483;51.310;4.462;2022-12-10T02:42:44;-0.50;99.90
12833;DHT22;6483;51.310;4.462;2022-12-10T02:45:11;-0.50;99.90
12833;DHT22;6483;51.310;4.462;2022-12-10T02:47:38;-0.50;99.90
12833;DHT22;6483;51.310;4.462;2022-12-10T02:50:09;-0.50;99.90
12833;DHT22;6483;51.310;4.462;2022-12-10T02:52:39;-0.60;99.90
12833;DHT22;6483;51.310;4.462;2022-12-10T02:55:06;-0.70;99.90
12833;DHT22;6483;51.310;4.462;2022-12-10T03:00:28;-0.60;99.90
12833;DHT22;6483;51.310;4.462;2022-12-10T03:06:00;-0.60;99.90
12833;DHT22;6483;51.310;4.462;2022-12-10T03:08:54;-0.50;99.90
12833;DHT22;6483;51.310;4.462;2022-12-10T03:11:19;-0.40;99.90
12833;DHT22;6483;51.310;4.462;2022-12-10T03:14:07;-0.60;99.90
12833;DHT22;6483;51.310;4.462;2022-12-10T03:16:44;-0.60;99.90
12833;DHT22;6483;51.310;4.462;2022-12-10T03:19:17;-0.50;99.90
12833;DHT22;6483;51.310;4.462;2022-12-10T03:21:44;-0.50;99.90
12833;DHT22;6483;51.310;4.462;2022-12-10T03:24:12;-0.50;99.90
12833;DHT22;6483;51.310;4.462;2022-12-10T03:26:39;0.20;99.90
12833;DHT22;6483;51.310;4.462;2022-12-10T03:29:10;-0.40;99.90
12833;DHT22;6483;51.310;4.462;2022-12-10T03:31:39;1.80;99.90
12833;DHT22;6483;51.310;4.462;2022-12-10T03:34:06;1.80;99.90
12833;DHT22;6483;51.310;4.462;2022-12-10T03:36:33;-0.40;99.90
12833;DHT22;6483;51.310;4.462;2022-12-10T03:39:00;-0.30;99.90
12833;DHT22;6483;51.310;4.462;2022-12-10T03:41:26;-0.50;99.90
12833;DHT22;6483;51.310;4.462;2022-12-10T03:43:58;1.40;99.90
12833;DHT22;6483;51.310;4.462;2022-12-10T03:46:28;-0.40;99.90
12833;DHT22;6483;51.310;4.462;2022-12-10T03:48:59;-0.50;99.90
12833;DHT22;6483;51.310;4.462;2022-12-10T03:51:25;-0.60;99.90
12833;DHT22;6483;51.310;4.462;2022-12-10T03:53:51;-0.50;99.90
12833;DHT22;6483;51.310;4.462;2022-12-10T03:56:18;-0.60;99.90
12833;DHT22;6483;51.310;4.462;2022-12-10T03:58:47;-0.50;99.90
12833;DHT22;6483;51.310;4.462;2022-12-10T04:01:13;-0.60;99.90
12833;DHT22;6483;51.310;4.462;2022-12-10T04:03:40;1.60;99.90
12833;DHT22;6483;51.310;4.462;2022-12-10T04:06:09;0.60;99.90
12833;DHT22;6483;51.310;4.462;2022-12-10T04:08:35;0.40;99.90
12833;DHT22;6483;51.310;4.462;2022-12-10T04:11:10;-0.60;99.90
12833;DHT22;6483;51.310;4.462;2022-12-10T04:13:39;-0.50;99.90
12833;DHT22;6483;51.310;4.462;2022-12-10T04:16:25;-0.50;99.90
12833;DHT22;6483;51.310;4.462;2022-12-10T04:18:55;-0.50;99.90
12833;DHT22;6483;51.310;4.462;2022-12-10T04:21:22;-0.40;99.90
12833;DHT22;6483;51.310;4.462;2022-12-10T04:24:10;-0.60;99.90
12833;DHT22;6483;51.310;4.462;2022-12-10T04:26:56;-0.40;99.90
12833;DHT22;6483;51.310;4.462;2022-12-10T04:29:29;-0.40;99.90
12833;DHT22;6483;51.310;4.462;2022-12-10T04:31:56;-0.40;99.90
12833;DHT22;6483;51.310;4.462;2022-12-10T04:34:23;-0.30;99.90
12833;DHT22;6483;51.310;4.462;2022-12-10T04:36:50;1.00;99.90
12833;DHT22;6483;51.310;4.462;2022-12-10T04:39:21;-0.50;99.90
12833;DHT22;6483;51.310;4.462;2022-12-10T04:41:51;-0.40;99.90
12833;DHT22;6483;51.310;4.462;2022-12-10T04:44:21;-0.50;99.90
12833;DHT22;6483;51.310;4.462;2022-12-10T04:46:50;-0.50;99.90
12833;DHT22;6483;51.310;4.462;2022-12-10T04:49:17;-0.40;99.90
12833;DHT22;6483;51.310;4.462;2022-12-10T04:51:46;-0.30;99.90
12833;DHT22;6483;51.310;4.462;2022-12-10T04:54:12;-0.20;99.90
12833;DHT22;6483;51.310;4.462;2022-12-10T04:56:39;0.00;99.90
12833;DHT22;6483;51.310;4.462;2022-12-10T04:59:06;-0.30;99.90
12833;DHT22;6483;51.310;4.462;2022-12-10T05:01:36;1.20;99.90
12833;DHT22;6483;51.310;4.462;2022-12-10T05:04:09;-0.40;99.90
12833;DHT22;6483;51.310;4.462;2022-12-10T05:06:37;0.30;99.90
12833;DHT22;6483;51.310;4.462;2022-12-10T05:09:06;-0.30;99.90
12833;DHT22;6483;51.310;4.462;2022-12-10T05:11:33;1.20;99.90
12833;DHT22;6483;51.310;4.462;2022-12-10T05:14:00;1.40;99.90
12833;DHT22;6483;51.310;4.462;2022-12-10T05:16:28;-0.40;99.90
12833;DHT22;6483;51.310;4.462;2022-12-10T05:18:58;-0.30;99.90
12833;DHT22;6483;51.310;4.462;2022-12-10T05:21:25;-0.40;99.90
12833;DHT22;6483;51.310;4.462;2022-12-10T05:24:12;-0.50;99.90
12833;DHT22;6483;51.310;4.462;2022-12-10T05:26:38;-0.50;99.90
12833;DHT22;6483;51.310;4.462;2022-12-10T05:29:21;1.90;99.90
12833;DHT22;6483;51.310;4.462;2022-12-10T05:31:51;-0.40;99.90
12833;DHT22;6483;51.310;4.462;2022-12-10T05:34:16;1.00;99.90
12833;DHT22;6483;51.310;4.462;2022-12-10T05:36:42;0.30;99.90
12833;DHT22;6483;51.310;4.462;2022-12-10T05:39:10;-0.40;99.90
12833;DHT22;6483;51.310;4.462;2022-12-10T05:41:38;0.70;99.90
12833;DHT22;6483;51.310;4.462;2022-12-10T05:44:04;-0.50;99.90
12833;DHT22;6483;51.310;4.462;2022-12-10T05:46:32;-0.60;99.90
12833;DHT22;6483;51.310;4.462;2022-12-10T05:49:00;-0.60;99.90
12833;DHT22;6483;51.310;4.462;2022-12-10T05:51:31;-0.60;99.90
12833;DHT22;6483;51.310;4.462;2022-12-10T05:54:04;0.30;99.90
12833;DHT22;6483;51.310;4.462;2022-12-10T05:56:30;-0.60;99.90
12833;DHT22;6483;51.310;4.462;2022-12-10T05:59:01;-0.50;99.90
12833;DHT22;6483;51.310;4.462;2022-12-10T06:01:29;-0.50;99.90
12833;DHT22;6483;51.310;4.462;2022-12-10T06:03:58;1.20;99.90
12833;DHT22;6483;51.310;4.462;2022-12-10T06:06:27;-0.60;99.90
12833;DHT22;6483;51.310;4.462;2022-12-10T06:08:53;1.20;99.90
12833;DHT22;6483;51.310;4.462;2022-12-10T06:11:27;-0.40;99.90
12833;DHT22;6483;51.310;4.462;2022-12-10T06:13:57;-0.40;99.90
12833;DHT22;6483;51.310;4.462;2022-12-10T06:16:25;1.10;99.90
12833;DHT22;6483;51.310;4.462;2022-12-10T06:18:52;0.20;99.90
12833;DHT22;6483;51.310;4.462;2022-12-10T06:21:19;1.00;99.90
12833;DHT22;6483;51.310;4.462;2022-12-10T06:23:48;-0.20;99.90
12833;DHT22;6483;51.310;4.462;2022-12-10T06:26:27;1.10;99.90
12833;DHT22;6483;51.310;4.462;2022-12-10T06:28:53;-0.20;99.90
12833;DHT22;6483;51.310;4.462;2022-12-10T06:31:26;1.10;99.90
12833;DHT22;6483;51.310;4.462;2022-12-10T06:33:52;-0.30;99.90
12833;DHT22;6483;51.310;4.462;2022-12-10T06:36:19;-0.30;99.90
12833;DHT22;6483;51.310;4.462;2022-12-10T06:38:48;-0.10;99.90
12833;DHT22;6483;51.310;4.462;2022-12-10T06:41:16;-0.30;99.90
12833;DHT22;6483;51.310;4.462;2022-12-10T06:43:42;-0.30;99.90
12833;DHT22;6483;51.310;4.462;2022-12-10T06:46:11;0.20;99.90
12833;DHT22;6483;51.310;4.462;2022-12-10T06:48:41;1.60;99.90
12833;DHT22;6483;51.310;4.462;2022-12-10T06:51:11;-0.40;99.90
12833;DHT22;6483;51.310;4.462;2022-12-10T06:53:41;-0.40;99.90
12833;DHT22;6483;51.310;4.462;2022-12-10T06:56:10;-0.40;99.90
12833;DHT22;6483;51.310;4.462;2022-12-10T06:58:36;-0.40;99.90
12833;DHT22;6483;51.310;4.462;2022-12-10T07:01:08;0.30;99.90
12833;DHT22;6483;51.310;4.462;2022-12-10T07:03:34;-0.40;99.90
12833;DHT22;6483;51.310;4.462;2022-12-10T07:06:02;-0.40;99.90
12833;DHT22;6483;51.310;4.462;2022-12-10T07:08:28;-0.30;99.90
12833;DHT22;6483;51.310;4.462;2022-12-10T07:10:57;-0.30;99.90
12833;DHT22;6483;51.310;4.462;2022-12-10T07:13:24;-0.40;99.90
12833;DHT22;6483;51.310;4.462;2022-12-10T07:15:51;1.20;99.90
12833;DHT22;6483;51.310;4.462;2022-12-10T07:18:17;-0.40;99.90
12833;DHT22;6483;51.310;4.462;2022-12-10T07:20:46;-0.40;99.90
12833;DHT22;6483;51.310;4.462;2022-12-10T07:23:12;-0.40;99.90
12833;DHT22;6483;51.310;4.462;2022-12-10T07:25:41;-0.50;99.90
12833;DHT22;6483;51.310;4.462;2022-12-10T07:28:07;0.20;99.90
12833;DHT22;6483;51.310;4.462;2022-12-10T07:30:34;-0.60;99.90
12833;DHT22;6483;51.310;4.462;2022-12-10T07:32:59;-0.60;99.90
12833;DHT22;6483;51.310;4.462;2022-12-10T07:35:28;-0.60;99.90
12833;DHT22;6483;51.310;4.462;2022-12-10T07:37:54;-0.60;99.90
12833;DHT22;6483;51.310;4.462;2022-12-10T07:40:23;-0.60;99.90
12833;DHT22;6483;51.310;4.462;2022-12-10T07:42:49;-0.60;99.90
12833;DHT22;6483;51.310;4.462;2022-12-10T07:45:17;-0.70;99.90
12833;DHT22;6483;51.310;4.462;2022-12-10T07:47:43;-0.80;99.90
12833;DHT22;6483;51.310;4.462;2022-12-10T07:50:10;-0.80;99.90
12833;DHT22;6483;51.310;4.462;2022-12-10T07:52:39;0.30;99.90
12833;DHT22;6483;51.310;4.462;2022-12-10T07:55:09;-0.90;99.90
12833;DHT22;6483;51.310;4.462;2022-12-10T07:57:38;-0.80;99.90
12833;DHT22;6483;51.310;4.462;2022-12-10T08:00:07;-0.80;99.90
12833;DHT22;6483;51.310;4.462;2022-12-10T08:02:33;-0.80;99.90
12833;DHT22;6483;51.310;4.462;2022-12-10T08:04:58;-0.80;99.90
12833;DHT22;6483;51.310;4.462;2022-12-10T08:07:24;-0.80;99.90
12833;DHT22;6483;51.310;4.462;2022-12-10T08:09:49;-0.80;99.90
12833;DHT22;6483;51.310;4.462;2022-12-10T08:12:15;0.10;99.90
12833;DHT22;6483;51.310;4.462;2022-12-10T08:14:41;-0.70;99.90
12833;DHT22;6483;51.310;4.462;2022-12-10T08:17:06;1.40;99.90
12833;DHT22;6483;51.310;4.462;2022-12-10T08:19:35;-0.70;99.90
12833;DHT22;6483;51.310;4.462;2022-12-10T08:22:01;0.70;99.90
12833;DHT22;6483;51.310;4.462;2022-12-10T08:24:30;0.30;99.90
12833;DHT22;6483;51.310;4.462;2022-12-10T08:26:57;-0.60;99.90
12833;DHT22;6483;51.310;4.462;2022-12-10T08:29:23;-0.10;99.90
12833;DHT22;6483;51.310;4.462;2022-12-10T08:31:50;1.00;99.90
12833;DHT22;6483;51.310;4.462;2022-12-10T08:34:17;-0.60;99.90
12833;DHT22;6483;51.310;4.462;2022-12-10T08:36:44;0.00;99.90
12833;DHT22;6483;51.310;4.462;2022-12-10T08:39:14;-0.60;99.90
12833;DHT22;6483;51.310;4.462;2022-12-10T08:41:44;-0.70;99.90
12833;DHT22;6483;51.310;4.462;2022-12-10T08:44:11;-0.60;99.90
12833;DHT22;6483;51.310;4.462;2022-12-10T08:46:37;0.20;99.90
12833;DHT22;6483;51.310;4.462;2022-12-10T08:49:04;-0.10;99.90
12833;DHT22;6483;51.310;4.462;2022-12-10T08:51:35;-0.40;99.90
12833;DHT22;6483;51.310;4.462;2022-12-10T08:54:01;-0.50;99.90
12833;DHT22;6483;51.310;4.462;2022-12-10T08:56:26;1.50;99.90
12833;DHT22;6483;51.310;4.462;2022-12-10T08:58:52;1.30;99.90
12833;DHT22;6483;51.310;4.462;2022-12-10T09:01:18;1.60;99.90
12833;DHT22;6483;51.310;4.462;2022-12-10T09:03:44;0.40;99.90
12833;DHT22;6483;51.310;4.462;2022-12-10T09:06:15;0.90;99.90
12833;DHT22;6483;51.310;4.462;2022-12-10T09:08:44;-0.40;99.90
12833;DHT22;6483;51.310;4.462;2022-12-10T09:11:25;-0.40;99.90
12833;DHT22;6483;51.310;4.462;2022-12-10T09:13:55;-0.40;99.90
12833;DHT22;6483;51.310;4.462;2022-12-10T09:16:29;-0.40;99.90
12833;DHT22;6483;51.310;4.462;2022-12-10T09:18:58;-0.40;99.90
12833;DHT22;6483;51.310;4.462;2022-12-10T09:21:24;-0.40;99.90
12833;DHT22;6483;51.310;4.462;2022-12-10T09:23:54;-0.20;99.90
12833;DHT22;6483;51.310;4.462;2022-12-10T09:26:20;-0.30;99.90
12833;DHT22;6483;51.310;4.462;2022-12-10T09:28:47;-0.30;99.90
12833;DHT22;6483;51.310;4.462;2022-12-10T09:31:15;-0.30;99.90
12833;DHT22;6483;51.310;4.462;2022-12-10T09:33:46;0.20;99.90
12833;DHT22;6483;51.310;4.462;2022-12-10T09:36:13;-0.20;99.90
12833;DHT22;6483;51.310;4.462;2022-12-10T09:38:44;-0.10;99.90
12833;DHT22;6483;51.310;4.462;2022-12-10T09:52:16;0.10;99.90
12833;DHT22;6483;51.310;4.462;2022-12-10T09:54:48;0.10;99.90
12833;DHT22;6483;51.310;4.462;2022-12-10T09:57:36;0.20;99.90
12833;DHT22;6483;51.310;4.462;2022-12-10T10:00:37;0.10;99.90
12833;DHT22;6483;51.310;4.462;2022-12-10T10:03:09;0.10;99.90
12833;DHT22;6483;51.310;4.462;2022-12-10T10:05:41;0.10;99.90
12833;DHT22;6483;51.310;4.462;2022-12-10T10:08:27;0.20;99.90
12833;DHT22;6483;51.310;4.462;2022-12-10T10:10:55;0.30;99.90
12833;DHT22;6483;51.310;4.462;2022-12-10T10:13:31;1.80;99.90
12833;DHT22;6483;51.310;4.462;2022-12-10T10:16:23;0.20;99.90
12833;DHT22;6483;51.310;4.462;2022-12-10T10:19:16;1.20;99.90
12833;DHT22;6483;51.310;4.462;2022-12-10T10:21:45;0.30;99.90
12833;DHT22;6483;51.310;4.462;2022-12-10T10:24:36;1.50;99.90
12833;DHT22;6483;51.310;4.462;2022-12-10T10:27:29;0.30;99.90
12833;DHT22;6483;51.310;4.462;2022-12-10T10:29:59;0.20;99.90
12833;DHT22;6483;51.310;4.462;2022-12-10T10:32:45;0.20;99.90
12833;DHT22;6483;51.310;4.462;2022-12-10T10:35:53;0.20;99.90
12833;DHT22;6483;51.310;4.462;2022-12-10T10:38:22;0.80;99.90
12833;DHT22;6483;51.310;4.462;2022-12-10T10:40:58;0.20;99.90
12833;DHT22;6483;51.310;4.462;2022-12-10T10:43:33;0.20;99.90
12833;DHT22;6483;51.310;4.462;2022-12-10T10:46:04;0.30;99.90
12833;DHT22;6483;51.310;4.462;2022-12-10T10:48:32;0.40;99.90
12833;DHT22;6483;51.310;4.462;2022-12-10T10:51:27;0.50;99.90
12833;DHT22;6483;51.310;4.462;2022-12-10T10:54:00;0.40;99.90
12833;DHT22;6483;51.310;4.462;2022-12-10T10:56:29;0.50;99.90
12833;DHT22;6483;51.310;4.462;2022-12-10T11:01:57;0.40;99.90
12833;DHT22;6483;51.310;4.462;2022-12-10T11:04:36;0.60;99.90
12833;DHT22;6483;51.310;4.462;2022-12-10T11:07:33;1.60;99.90
12833;DHT22;6483;51.310;4.462;2022-12-10T11:10:00;0.70;99.90
12833;DHT22;6483;51.310;4.462;2022-12-10T11:12:38;2.40;99.90
12833;DHT22;6483;51.310;4.462;2022-12-10T11:17:50;1.10;99.90
12833;DHT22;6483;51.310;4.462;2022-12-10T11:22:54;0.90;99.90
12833;DHT22;6483;51.310;4.462;2022-12-10T11:25:50;1.00;99.90
12833;DHT22;6483;51.310;4.462;2022-12-10T11:28:41;0.90;99.90
12833;DHT22;6483;51.310;4.462;2022-12-10T11:31:15;0.90;99.90
12833;DHT22;6483;51.310;4.462;2022-12-10T11:49:11;1.00;99.90
12833;DHT22;6483;51.310;4.462;2022-12-10T12:03:24;1.30;99.90
12833;DHT22;6483;51.310;4.462;2022-12-10T12:06:12;1.30;99.90
12833;DHT22;6483;51.310;4.462;2022-12-10T12:08:51;1.30;99.90
12833;DHT22;6483;51.310;4.462;2022-12-10T12:11:38;1.40;99.90
12833;DHT22;6483;51.310;4.462;2022-12-10T12:20:03;1.70;99.90
12833;DHT22;6483;51.310;4.462;2022-12-10T12:22:36;1.60;99.90
12833;DHT22;6483;51.310;4.462;2022-12-10T12:25:27;1.60;99.90
12833;DHT22;6483;51.310;4.462;2022-12-10T12:31:35;1.50;99.90
12833;DHT22;6483;51.310;4.462;2022-12-10T12:34:13;1.40;99.90
12833;DHT22;6483;51.310;4.462;2022-12-10T12:36:41;1.50;99.90
12833;DHT22;6483;51.310;4.462;2022-12-10T12:39:34;1.40;99.90
12833;DHT22;6483;51.310;4.462;2022-12-10T12:50:42;1.30;99.90
12833;DHT22;6483;51.310;4.462;2022-12-10T12:53:20;1.30;99.90
12833;DHT22;6483;51.310;4.462;2022-12-10T12:59:27;1.30;99.90
12833;DHT22;6483;51.310;4.462;2022-12-10T13:02:06;3.10;99.90
12833;DHT22;6483;51.310;4.462;2022-12-10T13:04:34;1.30;99.90
12833;DHT22;6483;51.310;4.462;2022-12-10T13:10:18;1.80;99.90
12833;DHT22;6483;51.310;4.462;2022-12-10T13:12:50;1.50;99.90
12833;DHT22;6483;51.310;4.462;2022-12-10T13:15:38;4.00;99.90
12833;DHT22;6483;51.310;4.462;2022-12-10T13:21:45;1.50;99.90
12833;DHT22;6483;51.310;4.462;2022-12-10T13:32:20;1.70;99.90
12833;DHT22;6483;51.310;4.462;2022-12-10T13:40:42;1.80;99.90
12833;DHT22;6483;51.310;4.462;2022-12-10T13:43:40;2.00;99.90
12833;DHT22;6483;51.310;4.462;2022-12-10T13:46:50;2.10;99.90
12833;DHT22;6483;51.310;4.462;2022-12-10T13:49:23;4.00;99.90
12833;DHT22;6483;51.310;4.462;2022-12-10T14:00:22;2.20;99.90
12833;DHT22;6483;51.310;4.462;2022-12-10T14:06:02;2.30;99.90
12833;DHT22;6483;51.310;4.462;2022-12-10T14:08:35;2.30;99.90
12833;DHT22;6483;51.310;4.462;2022-12-10T14:11:05;2.40;99.90
12833;DHT22;6483;51.310;4.462;2022-12-10T14:13:42;2.30;99.90
12833;DHT22;6483;51.310;4.462;2022-12-10T14:16:32;2.20;99.90
12833;DHT22;6483;51.310;4.462;2022-12-10T14:19:02;2.20;99.90
12833;DHT22;6483;51.310;4.462;2022-12-10T14:21:35;2.10;99.90
12833;DHT22;6483;51.310;4.462;2022-12-10T14:26:57;2.20;99.90
12833;DHT22;6483;51.310;4.462;2022-12-10T14:29:24;2.20;99.90
12833;DHT22;6483;51.310;4.462;2022-12-10T14:31:50;3.40;99.90
12833;DHT22;6483;51.310;4.462;2022-12-10T14:34:26;2.20;99.90
12833;DHT22;6483;51.310;4.462;2022-12-10T14:36:57;2.10;99.90
12833;DHT22;6483;51.310;4.462;2022-12-10T14:39:34;4.50;99.90
12833;DHT22;6483;51.310;4.462;2022-12-10T14:42:05;2.00;99.90
12833;DHT22;6483;51.310;4.462;2022-12-10T14:44:37;1.90;99.90
12833;DHT22;6483;51.310;4.462;2022-12-10T14:47:20;3.20;99.90
12833;DHT22;6483;51.310;4.462;2022-12-10T14:50:12;1.90;99.90
12833;DHT22;6483;51.310;4.462;2022-12-10T14:52:44;1.90;99.90
12833;DHT22;6483;51.310;4.462;2022-12-10T14:55:14;1.80;99.90
12833;DHT22;6483;51.310;4.462;2022-12-10T14:57:52;1.90;99.90
12833;DHT22;6483;51.310;4.462;2022-12-10T15:00:25;1.80;99.90
12833;DHT22;6483;51.310;4.462;2022-12-10T15:02:57;1.90;99.90
12833;DHT22;6483;51.310;4.462;2022-12-10T15:06:13;1.80;99.90
12833;DHT22;6483;51.310;4.462;2022-12-10T15:08:15;2.10;99.90
12833;DHT22;6483;51.310;4.462;2022-12-10T15:10:49;1.90;99.90
12833;DHT22;6483;51.310;4.462;2022-12-10T15:13:27;0.80;99.90
12833;DHT22;6483;51.310;4.462;2022-12-10T15:15:54;1.90;99.90
12833;DHT22;6483;51.310;4.462;2022-12-10T15:18:47;2.00;99.90
12833;DHT22;6483;51.310;4.462;2022-12-10T15:21:14;3.00;99.90
12833;DHT22;6483;51.310;4.462;2022-12-10T15:23:43;1.90;99.90
12833;DHT22;6483;51.310;4.462;2022-12-10T15:26:33;3.70;99.90
12833;DHT22;6483;51.310;4.462;2022-12-10T15:32:01;1.80;99.90
12833;DHT22;6483;51.310;4.462;2022-12-10T15:34:47;1.80;99.90
12833;DHT22;6483;51.310;4.462;2022-12-10T15:37:34;1.80;99.90
12833;DHT22;6483;51.310;4.462;2022-12-10T15:40:04;1.80;99.90
12833;DHT22;6483;51.310;4.462;2022-12-10T15:42:48;1.90;99.90
12833;DHT22;6483;51.310;4.462;2022-12-10T15:45:37;2.00;99.90
12833;DHT22;6483;51.310;4.462;2022-12-10T15:48:11;2.00;99.90
12833;DHT22;6483;51.310;4.462;2022-12-10T15:50:38;3.00;99.90
12833;DHT22;6483;51.310;4.462;2022-12-10T15:53:04;3.00;99.90
12833;DHT22;6483;51.310;4.462;2022-12-10T15:55:32;3.30;99.90
12833;DHT22;6483;51.310;4.462;2022-12-10T15:57:58;3.00;99.90
12833;DHT22;6483;51.310;4.462;2022-12-10T16:00:26;3.10;99.90
12833;DHT22;6483;51.310;4.462;2022-12-10T16:03:00;2.00;99.90
12833;DHT22;6483;51.310;4.462;2022-12-10T16:05:35;2.00;99.90
12833;DHT22;6483;51.310;4.462;2022-12-10T16:08:20;2.00;99.90
12833;DHT22;6483;51.310;4.462;2022-12-10T16:10:48;2.00;99.90
12833;DHT22;6483;51.310;4.462;2022-12-10T16:13:35;2.00;99.90
12833;DHT22;6483;51.310;4.462;2022-12-10T16:16:15;2.10;99.90
12833;DHT22;6483;51.310;4.462;2022-12-10T16:18:41;2.10;99.90
12833;DHT22;6483;51.310;4.462;2022-12-10T16:21:07;2.60;99.90
12833;DHT22;6483;51.310;4.462;2022-12-10T16:23:39;2.10;99.90
12833;DHT22;6483;51.310;4.462;2022-12-10T16:26:25;2.10;99.90
12833;DHT22;6483;51.310;4.462;2022-12-10T16:28:54;2.10;99.90
12833;DHT22;6483;51.310;4.462;2022-12-10T16:31:25;2.40;99.90
12833;DHT22;6483;51.310;4.462;2022-12-10T16:33:52;2.20;99.90
12833;DHT22;6483;51.310;4.462;2022-12-10T16:36:18;2.40;99.90
12833;DHT22;6483;51.310;4.462;2022-12-10T16:38:43;2.30;99.90
12833;DHT22;6483;51.310;4.462;2022-12-10T16:41:21;2.30;99.90
12833;DHT22;6483;51.310;4.462;2022-12-10T16:43:50;2.20;99.90
12833;DHT22;6483;51.310;4.462;2022-12-10T16:46:16;2.30;99.90
12833;DHT22;6483;51.310;4.462;2022-12-10T16:48:42;2.30;99.90
12833;DHT22;6483;51.310;4.462;2022-12-10T16:51:26;2.30;99.90
12833;DHT22;6483;51.310;4.462;2022-12-10T16:53:59;2.30;99.90
12833;DHT22;6483;51.310;4.462;2022-12-10T16:56:28;4.30;99.90
12833;DHT22;6483;51.310;4.462;2022-12-10T16:58:53;2.90;99.90
12833;DHT22;6483;51.310;4.462;2022-12-10T17:01:24;3.00;99.90
12833;DHT22;6483;51.310;4.462;2022-12-10T17:03:51;2.30;99.90
12833;DHT22;6483;51.310;4.462;2022-12-10T17:06:18;3.20;99.90
12833;DHT22;6483;51.310;4.462;2022-12-10T17:08:44;2.70;99.90
12833;DHT22;6483;51.310;4.462;2022-12-10T17:11:24;3.20;99.90
12833;DHT22;6483;51.310;4.462;2022-12-10T17:14:33;2.40;99.90
12833;DHT22;6483;51.310;4.462;2022-12-10T17:17:06;2.30;99.90
12833;DHT22;6483;51.310;4.462;2022-12-10T17:19:34;2.30;99.90
12833;DHT22;6483;51.310;4.462;2022-12-10T17:22:00;2.40;99.90
12833;DHT22;6483;51.310;4.462;2022-12-10T17:24:26;2.40;99.90
12833;DHT22;6483;51.310;4.462;2022-12-10T17:26:58;2.30;99.90
12833;DHT22;6483;51.310;4.462;2022-12-10T17:29:27;4.20;99.90
12833;DHT22;6483;51.310;4.462;2022-12-10T17:31:57;3.10;99.90
12833;DHT22;6483;51.310;4.462;2022-12-10T17:34:26;2.30;99.90
12833;DHT22;6483;51.310;4.462;2022-12-10T17:36:52;2.30;99.90
12833;DHT22;6483;51.310;4.462;2022-12-10T17:39:21;4.20;99.90
12833;DHT22;6483;51.310;4.462;2022-12-10T17:41:50;3.10;99.90
12833;DHT22;6483;51.310;4.462;2022-12-10T17:44:19;4.40;99.90
12833;DHT22;6483;51.310;4.462;2022-12-10T17:46:47;4.80;99.90
12833;DHT22;6483;51.310;4.462;2022-12-10T17:49:14;2.60;99.90
12833;DHT22;6483;51.310;4.462;2022-12-10T17:51:42;2.20;99.90
12833;DHT22;6483;51.310;4.462;2022-12-10T17:54:08;2.20;99.90
12833;DHT22;6483;51.310;4.462;2022-12-10T17:56:35;2.20;99.90
12833;DHT22;6483;51.310;4.462;2022-12-10T17:59:04;2.20;99.90
12833;DHT22;6483;51.310;4.462;2022-12-10T18:01:41;4.20;99.90
12833;DHT22;6483;51.310;4.462;2022-12-10T18:04:19;4.60;99.90
12833;DHT22;6483;51.310;4.462;2022-12-10T18:06:45;2.90;99.90
12833;DHT22;6483;51.310;4.462;2022-12-10T18:09:12;2.20;99.90
12833;DHT22;6483;51.310;4.462;2022-12-10T18:11:41;2.20;99.90
12833;DHT22;6483;51.310;4.462;2022-12-10T18:14:11;2.10;99.90
12833;DHT22;6483;51.310;4.462;2022-12-10T18:16:39;2.10;99.90
12833;DHT22;6483;51.310;4.462;2022-12-10T18:19:11;4.10;99.90
12833;DHT22;6483;51.310;4.462;2022-12-10T18:21:37;2.10;99.90
12833;DHT22;6483;51.310;4.462;2022-12-10T18:24:03;2.10;99.90
12833;DHT22;6483;51.310;4.462;2022-12-10T18:26:30;2.10;99.90